Time;durP1;ratioP1;P1;durP2;ratioP2;P2;SDS_P1;SDS_P2;PMS_P1;PMS_P2;Temp;Humidity;BMP_temperature;BMP_pressure;BME280_temperature;BME280_humidity;BME280_pressure;Samples;Min_cycle;Max_cycle;Signal;HPM_P1;HPM_P2
2021/09/08 00:00:49;;;;;;;17.67;14.77;;;11.40;99.90;;;;;;5104093;28;20478;-82
2021/09/08 00:03:14;;;;;;;19.33;15.67;;;11.30;99.90;;;;;;5101887;28;20419;-82
2021/09/08 00:05:40;;;;;;;17.13;15.27;;;11.40;99.90;;;;;;5102111;28;20371;-83
2021/09/08 00:08:06;;;;;;;19.93;16.23;;;11.30;99.90;;;;;;5120292;28;20763;-85
2021/09/08 00:10:31;;;;;;;20.48;16.35;;;11.30;99.90;;;;;;5102910;28;20404;-83
2021/09/08 00:12:57;;;;;;;19.98;16.52;;;11.30;99.90;;;;;;5100081;28;20383;-83
2021/09/08 00:15:22;;;;;;;18.03;16.10;;;11.30;99.90;;;;;;5121105;28;20378;-82
2021/09/08 00:17:48;;;;;;;17.17;15.47;;;11.30;99.90;;;;;;5121399;28;20371;-84
2021/09/08 00:20:15;;;;;;;17.63;15.32;;;11.30;99.90;;;;;;5101614;28;20967;-83
2021/09/08 00:22:42;;;;;;;17.23;14.57;;;11.20;99.90;;;;;;5120629;28;20892;-83
2021/09/08 00:25:09;;;;;;;19.45;15.48;;;11.20;99.90;;;;;;5121819;28;20385;-83
2021/09/08 00:27:34;;;;;;;17.60;15.00;;;11.20;99.90;;;;;;5121805;28;20450;-84
2021/09/08 00:30:00;;;;;;;18.00;16.10;;;11.10;99.90;;;;;;5103419;28;20394;-82
2021/09/08 00:32:26;;;;;;;19.50;16.50;;;11.20;99.90;;;;;;5120262;28;20383;-82
2021/09/08 00:34:51;;;;;;;18.58;16.60;;;11.20;99.90;;;;;;5100929;28;20374;-82
2021/09/08 00:37:17;;;;;;;17.67;15.93;;;11.20;99.90;;;;;;5102596;28;20371;-84
2021/09/08 00:39:44;;;;;;;18.70;16.37;;;11.20;99.90;;;;;;5118939;28;20438;-85
2021/09/08 00:42:14;;;;;;;18.10;16.20;;;11.10;99.90;;;;;;5118035;28;20406;-83
2021/09/08 00:44:41;;;;;;;19.92;15.95;;;11.10;99.90;;;;;;5100205;28;20394;-82
2021/09/08 00:47:06;;;;;;;17.45;15.63;;;11.10;99.90;;;;;;5100036;28;20383;-85
2021/09/08 00:49:32;;;;;;;17.08;15.27;;;11.00;99.90;;;;;;5101363;28;20401;-84
2021/09/08 00:52:03;;;;;;;17.63;15.75;;;10.90;99.90;;;;;;5118969;28;21060;-82
2021/09/08 00:54:29;;;;;;;17.38;15.57;;;10.90;99.90;;;;;;5103737;28;20892;-83
2021/09/08 00:56:55;;;;;;;18.27;16.30;;;10.90;99.90;;;;;;5104211;28;20371;-82
2021/09/08 00:59:20;;;;;;;17.35;15.55;;;10.90;99.90;;;;;;5101543;28;20439;-83
2021/09/08 01:01:47;;;;;;;17.67;15.98;;;10.90;99.90;;;;;;5119200;28;20428;-84
2021/09/08 01:04:14;;;;;;;16.75;15.05;;;10.80;99.90;;;;;;5102112;28;20378;-82
2021/09/08 01:06:40;;;;;;;17.58;15.77;;;10.90;99.90;;;;;;5121934;28;20405;-83
2021/09/08 01:09:06;;;;;;;17.30;15.60;;;10.90;99.90;;;;;;5122771;28;20806;-82
2021/09/08 01:11:33;;;;;;;17.80;16.00;;;10.90;99.90;;;;;;5122022;28;20470;-86
2021/09/08 01:13:59;;;;;;;17.55;15.70;;;10.80;99.90;;;;;;5121822;28;20386;-83
2021/09/08 01:16:25;;;;;;;18.25;15.32;;;10.80;99.90;;;;;;5118219;28;20445;-83
2021/09/08 01:18:50;;;;;;;18.00;16.10;;;10.80;99.90;;;;;;5115487;28;20383;-84
2021/09/08 01:21:16;;;;;;;17.27;15.47;;;10.80;99.90;;;;;;5115984;28;20359;-83
2021/09/08 01:23:42;;;;;;;18.30;16.23;;;10.80;99.90;;;;;;5116435;28;20377;-83
2021/09/08 01:26:08;;;;;;;16.80;15.05;;;10.80;99.90;;;;;;5096917;28;20419;-85
2021/09/08 01:28:33;;;;;;;17.70;15.80;;;10.70;99.90;;;;;;5096936;28;20745;-86
2021/09/08 01:30:59;;;;;;;17.23;15.23;;;10.70;99.90;;;;;;5097591;28;20367;-86
2021/09/08 01:33:25;;;;;;;17.03;15.23;;;10.70;99.90;;;;;;5099786;28;20371;-83
2021/09/08 01:35:51;;;;;;;17.87;15.57;;;10.60;99.90;;;;;;5117307;28;20381;-82
2021/09/08 01:38:17;;;;;;;17.90;16.10;;;10.60;99.90;;;;;;5116291;28;20390;-84
2021/09/08 01:40:43;;;;;;;20.92;15.93;;;10.60;99.90;;;;;;5116053;28;20386;-83
2021/09/08 01:43:09;;;;;;;16.70;15.00;;;10.60;99.90;;;;;;5099566;28;20405;-84
2021/09/08 01:45:38;;;;;;;19.20;15.83;;;10.50;99.90;;;;;;5098802;28;20465;-86
2021/09/08 01:48:04;;;;;;;20.50;16.25;;;10.50;99.90;;;;;;5115545;28;20379;-84
2021/09/08 01:50:29;;;;;;;17.57;15.67;;;10.50;99.90;;;;;;5115506;28;20447;-86
2021/09/08 01:52:55;;;;;;;17.55;15.77;;;10.50;99.90;;;;;;5097079;28;20880;-83
2021/09/08 01:55:20;;;;;;;16.67;15.00;;;10.50;99.90;;;;;;5115705;28;20405;-84
2021/09/08 01:57:46;;;;;;;17.40;15.50;;;10.50;99.90;;;;;;5114795;28;20386;-84
2021/09/08 02:00:14;;;;;;;20.65;15.07;;;10.40;99.90;;;;;;5115146;28;20375;-84
2021/09/08 02:02:41;;;;;;;16.45;14.73;;;10.40;99.90;;;;;;5115299;28;20437;-83
2021/09/08 02:05:07;;;;;;;15.90;14.30;;;10.40;99.90;;;;;;5096369;28;20508;-82
2021/09/08 02:07:33;;;;;;;16.02;14.40;;;10.30;99.90;;;;;;5114018;28;20950;-85
2021/09/08 02:09:58;;;;;;;16.80;15.00;;;10.40;99.90;;;;;;5114567;28;20367;-83
2021/09/08 02:12:24;;;;;;;16.93;14.73;;;10.40;99.90;;;;;;5097519;28;20378;-85
2021/09/08 02:14:50;;;;;;;16.30;14.70;;;10.40;99.90;;;;;;5115903;28;20387;-82
2021/09/08 02:17:15;;;;;;;16.75;13.98;;;10.30;99.90;;;;;;5098254;28;20366;-83
2021/09/08 02:19:41;;;;;;;16.67;14.97;;;10.30;99.90;;;;;;5115933;28;20389;-84
2021/09/08 02:22:07;;;;;;;16.90;14.93;;;10.30;99.90;;;;;;5114790;28;20533;-84
2021/09/08 02:24:32;;;;;;;19.05;14.73;;;10.20;99.90;;;;;;5096135;28;20375;-86
2021/09/08 02:26:58;;;;;;;15.95;14.35;;;10.20;99.90;;;;;;5096305;28;20379;-84
2021/09/08 02:29:23;;;;;;;16.20;14.50;;;10.10;99.90;;;;;;5116340;28;20876;-85
2021/09/08 02:31:49;;;;;;;15.50;13.97;;;10.20;99.90;;;;;;5097622;28;20363;-87
2021/09/08 02:34:15;;;;;;;16.33;13.93;;;10.10;99.90;;;;;;5115114;28;20977;-84
2021/09/08 02:36:41;;;;;;;16.57;14.17;;;10.20;99.90;;;;;;5115630;28;20375;-83
2021/09/08 02:39:06;;;;;;;17.80;14.30;;;10.10;99.90;;;;;;5114873;28;20767;-84
2021/09/08 02:41:32;;;;;;;16.07;13.83;;;10.10;99.90;;;;;;5115197;28;20576;-83
2021/09/08 02:43:58;;;;;;;14.50;13.10;;;10.10;99.90;;;;;;5096414;28;20371;-84
2021/09/08 02:46:24;;;;;;;16.65;14.23;;;10.10;99.90;;;;;;5114305;28;20404;-82
2021/09/08 02:48:49;;;;;;;15.20;13.60;;;10.10;99.90;;;;;;5115828;28;20366;-86
2021/09/08 02:51:15;;;;;;;15.43;13.83;;;10.00;99.90;;;;;;5097695;28;20771;-86
2021/09/08 02:53:40;;;;;;;14.43;13.03;;;10.00;99.90;;;;;;5096969;28;20425;-83
2021/09/08 02:56:06;;;;;;;15.63;13.30;;;10.00;99.90;;;;;;5097059;28;20371;-82
2021/09/08 02:58:32;;;;;;;14.77;13.37;;;10.00;99.90;;;;;;5114748;28;20370;-85
2021/09/08 03:00:57;;;;;;;15.18;13.65;;;10.00;99.90;;;;;;5115128;28;20371;-83
2021/09/08 03:03:23;;;;;;;14.70;13.20;;;10.00;99.90;;;;;;5096245;28;20459;-85
2021/09/08 03:05:50;;;;;;;14.63;13.07;;;10.00;99.90;;;;;;5096688;28;20410;-84
2021/09/08 03:08:16;;;;;;;15.37;13.77;;;10.00;99.90;;;;;;5115300;28;20519;-81
2021/09/08 03:10:43;;;;;;;17.05;13.20;;;10.00;99.90;;;;;;5097054;28;20366;-82
2021/09/08 03:13:11;;;;;;;36.03;15.00;;;9.90;99.90;;;;;;5097470;28;20375;-83
2021/09/08 03:15:37;;;;;;;34.13;15.02;;;9.90;99.90;;;;;;5097988;28;20367;-84
2021/09/08 03:18:04;;;;;;;26.20;13.45;;;9.90;99.90;;;;;;5097111;28;20379;-84
2021/09/08 03:20:30;;;;;;;20.13;13.65;;;9.80;99.90;;;;;;5114733;28;20432;-83
2021/09/08 03:22:55;;;;;;;15.90;12.80;;;9.80;99.90;;;;;;5115719;28;20887;-83
2021/09/08 03:25:21;;;;;;;17.40;13.23;;;9.80;99.90;;;;;;5116364;28;20465;-83
2021/09/08 03:27:46;;;;;;;14.67;12.50;;;9.80;99.90;;;;;;5116160;28;20448;-84
2021/09/08 03:30:12;;;;;;;15.25;12.55;;;9.80;99.90;;;;;;5099387;28;20383;-85
2021/09/08 03:32:38;;;;;;;15.83;13.43;;;9.80;99.90;;;;;;5116546;28;20385;-83
2021/09/08 03:35:04;;;;;;;15.27;13.10;;;9.70;99.90;;;;;;5116084;28;20499;-82
2021/09/08 03:37:29;;;;;;;14.20;12.70;;;9.70;99.90;;;;;;5116107;28;20382;-85
2021/09/08 03:39:56;;;;;;;14.63;12.18;;;9.70;99.90;;;;;;5115013;28;20362;-86
2021/09/08 03:42:24;;;;;;;12.85;11.55;;;9.70;99.90;;;;;;5096194;28;20888;-86
2021/09/08 03:44:50;;;;;;;13.38;12.00;;;9.70;99.90;;;;;;5095630;28;20370;-83
2021/09/08 03:47:15;;;;;;;13.23;11.57;;;9.70;99.90;;;;;;5097965;28;20398;-87
2021/09/08 03:49:45;;;;;;;13.27;11.88;;;9.70;99.90;;;;;;5114679;28;20379;-82
2021/09/08 03:52:14;;;;;;;13.10;11.88;;;9.70;99.90;;;;;;5114593;28;20398;-84
2021/09/08 03:54:39;;;;;;;13.57;12.13;;;9.70;99.90;;;;;;5114702;28;20382;-85
2021/09/08 03:57:06;;;;;;;13.67;11.73;;;9.70;99.90;;;;;;5095603;28;20385;-81
2021/09/08 03:59:32;;;;;;;14.15;12.00;;;9.70;99.90;;;;;;5095375;28;20386;-83
2021/09/08 04:01:57;;;;;;;13.38;11.98;;;9.70;99.90;;;;;;5115254;28;20448;-79
2021/09/08 04:04:23;;;;;;;13.88;12.48;;;9.60;99.90;;;;;;5118669;28;20378;-81
2021/09/08 04:06:50;;;;;;;13.77;12.20;;;9.60;99.90;;;;;;5119338;28;20379;-84
2021/09/08 04:09:15;;;;;;;13.75;12.32;;;9.60;99.90;;;;;;5112965;28;20370;-83
2021/09/08 04:11:42;;;;;;;13.30;11.93;;;9.60;99.90;;;;;;5094015;28;20536;-83
2021/09/08 04:14:09;;;;;;;13.18;11.77;;;9.60;99.90;;;;;;5112634;28;20899;-84
2021/09/08 04:16:34;;;;;;;12.90;11.60;;;9.50;99.90;;;;;;5112502;28;20378;-81
2021/09/08 04:19:00;;;;;;;14.05;12.55;;;9.50;99.90;;;;;;5113763;28;20375;-82
2021/09/08 04:21:25;;;;;;;15.70;12.43;;;9.50;99.90;;;;;;5113348;28;20367;-84
2021/09/08 04:23:51;;;;;;;27.73;13.60;;;9.50;99.90;;;;;;5112423;28;20388;-83
2021/09/08 04:26:17;;;;;;;16.08;12.68;;;9.40;99.90;;;;;;5111938;28;20377;-85
2021/09/08 04:28:42;;;;;;;19.50;13.57;;;9.50;99.90;;;;;;5093509;28;20775;-84
2021/09/08 04:31:08;;;;;;;15.13;12.83;;;9.50;99.90;;;;;;5111621;28;20374;-82
2021/09/08 04:33:33;;;;;;;13.20;11.90;;;9.50;99.90;;;;;;5111621;28;20712;-85
2021/09/08 04:35:59;;;;;;;17.70;13.17;;;9.50;99.90;;;;;;5092891;28;20370;-84
2021/09/08 04:38:24;;;;;;;14.17;12.20;;;9.50;99.90;;;;;;5111225;28;20447;-83
2021/09/08 04:40:51;;;;;;;14.90;13.00;;;9.50;99.90;;;;;;5110737;28;20439;-84
2021/09/08 04:43:16;;;;;;;13.82;12.50;;;9.50;99.90;;;;;;5111375;28;20741;-84
2021/09/08 04:45:42;;;;;;;13.65;11.85;;;9.50;99.90;;;;;;5092719;28;20379;-83
2021/09/08 04:48:08;;;;;;;14.82;12.65;;;9.50;99.90;;;;;;5108629;28;20397;-83
2021/09/08 04:50:34;;;;;;;14.13;12.63;;;9.50;99.90;;;;;;5109847;28;20391;-83
2021/09/08 04:52:59;;;;;;;13.63;12.20;;;9.60;99.90;;;;;;5091753;28;20389;-84
2021/09/08 04:55:25;;;;;;;12.23;11.03;;;9.60;99.90;;;;;;5107673;28;20448;-85
2021/09/08 04:57:50;;;;;;;12.63;11.32;;;9.60;99.90;;;;;;5091780;28;20400;-85
2021/09/08 05:00:16;;;;;;;13.37;11.97;;;9.70;99.90;;;;;;5110239;28;20421;-85
2021/09/08 05:02:42;;;;;;;12.60;11.32;;;9.70;99.90;;;;;;5113569;28;20394;-84
2021/09/08 05:05:08;;;;;;;15.18;11.70;;;9.80;99.90;;;;;;5113695;28;20375;-85
2021/09/08 05:07:34;;;;;;;13.95;11.82;;;9.80;99.90;;;;;;5095500;28;20375;-86
2021/09/08 05:09:59;;;;;;;12.13;10.98;;;9.90;99.90;;;;;;5113858;28;20868;-83
2021/09/08 05:12:25;;;;;;;12.70;11.40;;;9.90;99.90;;;;;;5096192;28;20374;-86
2021/09/08 05:14:50;;;;;;;16.93;11.43;;;10.00;99.90;;;;;;5095364;28;20379;-86
2021/09/08 05:17:16;;;;;;;17.88;12.02;;;10.00;99.90;;;;;;5113311;28;20748;-87
2021/09/08 05:19:41;;;;;;;14.80;11.20;;;10.10;99.90;;;;;;5112602;28;20371;-86
2021/09/08 05:22:07;;;;;;;14.20;11.47;;;10.10;99.90;;;;;;5112600;28;20398;-84
2021/09/08 05:24:33;;;;;;;13.35;11.65;;;10.10;99.90;;;;;;5112766;28;20811;-84
2021/09/08 05:26:58;;;;;;;11.57;10.37;;;10.20;99.90;;;;;;5096304;28;20382;-83
2021/09/08 05:29:24;;;;;;;12.13;10.90;;;10.30;99.90;;;;;;5113114;28;20382;-83
2021/09/08 05:31:50;;;;;;;13.18;11.90;;;10.40;99.90;;;;;;5113387;28;20740;-83
2021/09/08 05:34:16;;;;;;;34.92;14.05;;;10.50;99.90;;;;;;5095435;28;20362;-85
2021/09/08 05:36:41;;;;;;;19.37;11.33;;;10.50;99.90;;;;;;5115222;28;20378;-84
2021/09/08 05:39:07;;;;;;;14.50;11.33;;;10.60;99.90;;;;;;5115450;28;20370;-86
2021/09/08 05:41:33;;;;;;;15.90;11.25;;;10.80;99.90;;;;;;5116111;28;20856;-83
2021/09/08 05:43:58;;;;;;;61.78;15.90;;;10.90;99.90;;;;;;5098046;28;20428;-85
2021/09/08 05:46:24;;;;;;;78.37;18.40;;;10.90;99.90;;;;;;5117160;28;20443;-83
2021/09/08 05:48:51;;;;;;;27.53;12.03;;;11.10;99.90;;;;;;5116435;28;20755;-85
2021/09/08 05:51:17;;;;;;;20.08;11.90;;;11.10;99.90;;;;;;5096919;28;20377;-86
2021/09/08 05:53:43;;;;;;;16.00;11.30;;;11.20;99.90;;;;;;5113226;28;20474;-84
2021/09/08 05:56:08;;;;;;;14.50;11.27;;;11.40;99.90;;;;;;5112702;28;20486;-84
2021/09/08 05:58:34;;;;;;;12.68;11.05;;;11.50;99.90;;;;;;5113756;28;20864;-85
2021/09/08 06:01:00;;;;;;;13.17;10.47;;;11.60;99.90;;;;;;5113957;28;20374;-85
2021/09/08 06:03:26;;;;;;;14.23;10.57;;;11.70;99.90;;;;;;5114049;28;20455;-85
2021/09/08 06:05:51;;;;;;;10.73;9.63;;;11.80;99.90;;;;;;5112359;28;20395;-83
2021/09/08 06:08:17;;;;;;;15.93;11.18;;;12.00;99.90;;;;;;5094009;28;20363;-84
2021/09/08 06:10:43;;;;;;;11.75;10.55;;;12.10;99.90;;;;;;5112315;28;20362;-85
2021/09/08 06:13:09;;;;;;;14.97;11.03;;;12.20;99.90;;;;;;5094077;28;20390;-86
2021/09/08 06:15:34;;;;;;;11.70;10.23;;;12.40;99.90;;;;;;5113578;28;20461;-85
2021/09/08 06:18:02;;;;;;;13.63;9.75;;;12.60;99.90;;;;;;5114653;28;20464;-83
2021/09/08 06:20:29;;;;;;;11.57;10.45;;;12.80;99.90;;;;;;5093935;28;20876;-83
2021/09/08 06:22:54;;;;;;;13.57;12.05;;;13.00;99.90;;;;;;5091625;27;20507;-81
2021/09/08 06:25:20;;;;;;;15.32;12.13;;;13.00;99.90;;;;;;5094032;28;20441;-83
2021/09/08 06:27:46;;;;;;;13.57;11.40;;;13.30;99.90;;;;;;5096272;28;20367;-84
2021/09/08 06:30:11;;;;;;;16.92;11.48;;;13.40;99.90;;;;;;5114171;28;20367;-83
2021/09/08 06:32:37;;;;;;;30.10;11.98;;;13.60;99.90;;;;;;5094914;28;20429;-83
2021/09/08 06:35:03;;;;;;;158.30;22.20;;;13.90;99.90;;;;;;5112237;28;20379;-83
2021/09/08 06:37:28;;;;;;;81.25;17.42;;;14.10;99.90;;;;;;5111427;28;20422;-84
2021/09/08 06:39:54;;;;;;;66.55;15.32;;;14.40;99.90;;;;;;5111366;28;20375;-82
2021/09/08 06:42:20;;;;;;;21.27;13.27;;;14.80;99.90;;;;;;5111086;28;20397;-82
2021/09/08 06:44:49;;;;;;;22.20;16.02;;;15.10;99.90;;;;;;5092819;28;20907;-82
2021/09/08 06:47:16;;;;;;;21.77;16.48;;;15.40;99.90;;;;;;5091803;28;20379;-83
2021/09/08 06:49:41;;;;;;;26.98;17.92;;;15.60;99.90;;;;;;5109895;28;20390;-82
2021/09/08 06:52:07;;;;;;;23.23;18.43;;;15.90;99.90;;;;;;5107575;28;20433;-82
2021/09/08 06:54:33;;;;;;;21.23;18.55;;;16.20;99.90;;;;;;5110057;27;20473;-82
2021/09/08 06:56:58;;;;;;;22.00;18.07;;;16.40;99.90;;;;;;5109416;27;20864;-83
2021/09/08 06:59:24;;;;;;;24.23;19.73;;;16.60;99.90;;;;;;5086039;28;20844;-83
2021/09/08 07:01:49;;;;;;;30.17;20.80;;;17.00;99.90;;;;;;5107338;28;20398;-84
2021/09/08 07:04:15;;;;;;;23.45;18.15;;;17.20;99.90;;;;;;5109125;28;20458;-83
2021/09/08 07:06:41;;;;;;;22.50;18.90;;;17.40;99.90;;;;;;5091663;28;20375;-84
2021/09/08 07:09:09;;;;;;;19.83;17.70;;;17.70;99.90;;;;;;5109845;28;20500;-83
2021/09/08 07:11:36;;;;;;;21.42;18.30;;;17.90;99.90;;;;;;5108906;28;20379;-83
2021/09/08 07:14:03;;;;;;;28.00;18.60;;;18.20;99.90;;;;;;5091535;28;20394;-84
2021/09/08 07:16:28;;;;;;;21.80;18.48;;;18.40;99.90;;;;;;5092636;28;20383;-83
2021/09/08 07:19:13;;;;;;;20.73;17.97;;;18.60;99.90;;;;;;5091521;28;20428;-86
2021/09/08 07:21:38;;;;;;;21.50;17.23;;;18.80;99.90;;;;;;5105700;28;20848;-85
2021/09/08 07:24:06;;;;;;;21.67;17.80;;;19.00;99.90;;;;;;5109692;28;20424;-84
2021/09/08 07:26:33;;;;;;;18.30;15.95;;;19.20;99.90;;;;;;5091541;28;20395;-84
2021/09/08 07:29:03;;;;;;;17.05;14.98;;;19.30;99.90;;;;;;5109520;28;20453;-85
2021/09/08 07:31:30;;;;;;;23.00;17.23;;;19.50;99.90;;;;;;5091589;28;22127;-84
2021/09/08 07:33:56;;;;;;;43.23;16.93;;;19.70;99.90;;;;;;5108357;28;20371;-84
2021/09/08 07:36:22;;;;;;;42.67;17.10;;;19.90;99.90;;;;;;5109661;28;20375;-84
2021/09/08 07:38:47;;;;;;;23.17;15.50;;;20.10;99.90;;;;;;5091917;28;21087;-84
2021/09/08 07:41:13;;;;;;;19.75;15.73;;;20.30;99.90;;;;;;5110168;28;20375;-84
2021/09/08 07:43:39;;;;;;;19.92;14.77;;;20.40;99.90;;;;;;5109618;28;20398;-84
2021/09/08 07:46:05;;;;;;;16.73;14.93;;;20.50;99.90;;;;;;5092427;28;20395;-84
2021/09/08 07:48:30;;;;;;;33.60;15.38;;;20.60;99.90;;;;;;5100841;28;20842;-84
2021/09/08 07:50:56;;;;;;;19.90;13.90;;;20.70;99.90;;;;;;5110283;28;20367;-84
2021/09/08 07:53:22;;;;;;;17.77;13.98;;;20.70;99.90;;;;;;5092669;28;20436;-85
2021/09/08 07:55:48;;;;;;;16.33;14.33;;;20.90;99.90;;;;;;5091177;28;20410;-84
2021/09/08 07:58:13;;;;;;;21.15;13.73;;;21.10;99.90;;;;;;5090717;28;20436;-83
2021/09/08 08:00:39;;;;;;;20.13;13.90;;;21.20;99.90;;;;;;5091695;28;20432;-84
2021/09/08 08:03:05;;;;;;;60.90;17.85;;;21.30;99.90;;;;;;5109000;28;20410;-86
2021/09/08 08:05:32;;;;;;;17.02;13.25;;;21.30;99.90;;;;;;5110679;28;20394;-84
2021/09/08 08:07:59;;;;;;;14.57;12.32;;;21.40;99.90;;;;;;5109960;28;20860;-85
2021/09/08 08:10:25;;;;;;;16.77;12.80;;;21.60;99.90;;;;;;5110163;28;20904;-85
2021/09/08 08:12:51;;;;;;;14.63;13.05;;;21.80;99.90;;;;;;5109000;28;20421;-85
2021/09/08 08:15:17;;;;;;;16.60;12.23;;;21.80;99.90;;;;;;5109821;28;20396;-83
2021/09/08 08:17:43;;;;;;;14.30;11.93;;;22.10;99.90;;;;;;5091888;28;20466;-85
2021/09/08 08:20:10;;;;;;;17.13;12.43;;;22.20;99.90;;;;;;5107168;28;20367;-85
2021/09/08 08:22:40;;;;;;;17.52;12.05;;;22.30;99.90;;;;;;5091863;28;20402;-83
2021/09/08 08:25:09;;;;;;;13.45;11.30;;;22.40;99.90;;;;;;5109907;28;20381;-85
2021/09/08 08:27:35;;;;;;;15.48;12.13;;;22.50;99.90;;;;;;5091001;28;20403;-83
2021/09/08 08:30:02;;;;;;;16.67;11.73;;;22.50;99.90;;;;;;5101489;28;20739;-83
2021/09/08 08:32:28;;;;;;;19.92;12.38;;;22.70;99.90;;;;;;5091665;28;20465;-84
2021/09/08 08:34:54;;;;;;;69.45;15.35;;;22.70;99.90;;;;;;5108060;28;20424;-83
2021/09/08 08:37:20;;;;;;;14.40;12.07;;;22.70;99.90;;;;;;5092311;28;20375;-84
2021/09/08 08:39:46;;;;;;;15.40;11.73;;;22.70;99.90;;;;;;5113221;28;20378;-86
2021/09/08 08:42:31;;;;;;;13.40;12.00;;;22.80;99.90;;;;;;5088159;28;20822;-84
2021/09/08 08:44:57;;;;;;;14.23;10.88;;;22.80;99.90;;;;;;5084193;28;20400;-84
2021/09/08 08:47:23;;;;;;;43.72;13.43;;;22.80;99.90;;;;;;5110384;28;20943;-85
2021/09/08 08:49:50;;;;;;;14.23;10.98;;;22.80;99.90;;;;;;5111434;28;20370;-84
2021/09/08 08:52:16;;;;;;;14.90;11.37;;;23.00;99.90;;;;;;5111894;28;20422;-85
2021/09/08 08:54:42;;;;;;;13.98;10.68;;;23.00;99.90;;;;;;5115749;27;20421;-84
2021/09/08 08:57:09;;;;;;;14.25;11.32;;;23.10;99.90;;;;;;5102034;28;20412;-86
2021/09/08 08:59:36;;;;;;;11.77;10.17;;;23.30;99.90;;;;;;5094891;28;20371;-85
2021/09/08 09:02:23;;;;;;;12.37;10.80;;;23.40;99.90;;;;;;5092213;28;20395;-83
2021/09/08 09:04:51;;;;;;;13.43;10.93;;;23.50;99.90;;;;;;5094095;28;20386;-84
2021/09/08 09:07:21;;;;;;;52.53;15.10;;;23.50;99.90;;;;;;5113054;28;20461;-87
2021/09/08 09:09:56;;;;;;;27.43;12.80;;;23.50;99.90;;;;;;5111519;28;20429;-84
2021/09/08 09:12:27;;;;;;;14.80;11.02;;;23.60;99.90;;;;;;5094230;28;20446;-84
2021/09/08 09:14:58;;;;;;;12.07;10.63;;;23.60;99.90;;;;;;5113609;28;20387;-83
2021/09/08 09:17:25;;;;;;;11.32;9.82;;;23.60;99.90;;;;;;5093350;28;20416;-84
2021/09/08 09:19:51;;;;;;;15.07;9.90;;;23.60;99.90;;;;;;5095843;28;20370;-85
2021/09/08 09:22:18;;;;;;;12.07;9.85;;;23.90;99.90;;;;;;5115755;28;20456;-84
2021/09/08 09:24:47;;;;;;;12.23;10.20;;;24.10;99.90;;;;;;5096039;28;20391;-86
2021/09/08 09:27:13;;;;;;;12.07;9.90;;;24.10;99.90;;;;;;5094972;28;20386;-84
2021/09/08 09:29:43;;;;;;;10.55;9.45;;;24.00;99.90;;;;;;5113978;28;20382;-86
2021/09/08 09:32:11;;;;;;;21.48;11.18;;;24.10;99.90;;;;;;5113276;28;20363;-85
2021/09/08 09:34:41;;;;;;;14.93;9.47;;;24.10;99.90;;;;;;5114165;28;20413;-85
2021/09/08 09:37:08;;;;;;;32.87;11.70;;;24.20;99.90;;;;;;5113370;28;20461;-84
2021/09/08 09:39:36;;;;;;;12.35;9.20;;;24.30;99.90;;;;;;5095317;28;20375;-83
2021/09/08 09:42:10;;;;;;;12.17;10.10;;;24.30;99.90;;;;;;5113546;28;20383;-85
2021/09/08 09:44:36;;;;;;;12.67;9.57;;;24.30;99.90;;;;;;5095495;28;20397;-84
2021/09/08 09:47:02;;;;;;;13.38;10.70;;;24.40;99.90;;;;;;5113102;28;20879;-84
2021/09/08 09:49:34;;;;;;;11.43;9.68;;;24.40;99.90;;;;;;5114527;28;20730;-84
2021/09/08 09:52:04;;;;;;;37.80;11.57;;;24.50;99.90;;;;;;5114618;28;20375;-82
2021/09/08 09:54:30;;;;;;;11.85;9.52;;;24.60;99.90;;;;;;5112986;27;20833;-86
2021/09/08 09:56:56;;;;;;;41.17;12.17;;;24.60;99.90;;;;;;5136133;27;20498;-85
2021/09/08 09:59:22;;;;;;;11.27;9.57;;;24.60;99.90;;;;;;5134879;27;20384;-83
2021/09/08 10:01:48;;;;;;;10.48;9.20;;;24.60;99.90;;;;;;5133565;27;20374;-84
2021/09/08 10:04:14;;;;;;;16.63;10.18;;;24.70;99.90;;;;;;5135246;27;20365;-85
2021/09/08 10:06:41;;;;;;;11.60;9.95;;;24.90;99.90;;;;;;5116247;27;20369;-84
2021/09/08 10:09:12;;;;;;;13.23;9.88;;;24.80;99.90;;;;;;5115512;27;20381;-83
2021/09/08 10:11:46;;;;;;;12.20;9.57;;;24.70;99.90;;;;;;5113024;28;20458;-86
2021/09/08 10:14:24;;;;;;;12.07;10.50;;;24.60;99.90;;;;;;5095419;28;20563;-83
2021/09/08 10:16:49;;;;;;;16.38;9.98;;;24.40;99.90;;;;;;5098252;28;20883;-85
2021/09/08 10:19:26;;;;;;;17.43;10.50;;;24.50;99.90;;;;;;5095872;28;20423;-86
2021/09/08 10:21:53;;;;;;;13.20;9.07;;;24.60;99.90;;;;;;5095020;28;20403;-84
2021/09/08 10:24:20;;;;;;;36.50;11.27;;;24.70;99.90;;;;;;5112913;28;20449;-85
2021/09/08 10:26:47;;;;;;;12.00;8.77;;;24.90;99.90;;;;;;5096384;28;20379;-83
2021/09/08 10:29:14;;;;;;;76.47;16.13;;;24.80;99.90;;;;;;5112767;28;20466;-84
2021/09/08 10:31:50;;;;;;;11.32;9.73;;;24.60;99.90;;;;;;5095131;28;20786;-83
2021/09/08 10:34:16;;;;;;;10.63;9.52;;;24.50;99.90;;;;;;5112923;28;20469;-85
2021/09/08 10:36:44;;;;;;;11.48;9.02;;;24.50;99.90;;;;;;5113443;28;20947;-84
2021/09/08 10:39:16;;;;;;;11.20;9.25;;;24.60;99.90;;;;;;5095212;28;20379;-85
2021/09/08 10:41:46;;;;;;;35.42;11.52;;;24.70;99.90;;;;;;5113562;28;20371;-86
2021/09/08 10:44:16;;;;;;;15.73;10.25;;;24.90;99.90;;;;;;5112167;28;20883;-85
2021/09/08 10:46:50;;;;;;;11.10;9.90;;;24.80;99.90;;;;;;5093752;27;20472;-86
2021/09/08 10:49:37;;;;;;;10.27;9.23;;;24.70;99.90;;;;;;5108453;28;20370;-84
2021/09/08 10:52:04;;;;;;;78.50;14.27;;;24.70;99.90;;;;;;5108647;27;20434;-85
2021/09/08 10:54:32;;;;;;;11.18;9.68;;;24.70;99.90;;;;;;5132688;27;20520;-84
2021/09/08 10:56:58;;;;;;;10.18;9.07;;;24.60;99.90;;;;;;5109811;27;20534;-86
2021/09/08 10:59:24;;;;;;;11.02;9.15;;;24.60;99.90;;;;;;5110494;28;20793;-82
2021/09/08 11:01:54;;;;;;;10.23;8.48;;;24.60;99.90;;;;;;5093687;28;20371;-86
2021/09/08 11:04:19;;;;;;;10.15;9.02;;;24.80;99.90;;;;;;5127307;27;20731;-84
2021/09/08 11:06:48;;;;;;;11.30;9.33;;;24.70;99.90;;;;;;5132706;27;20365;-84
2021/09/08 11:09:18;;;;;;;10.57;9.52;;;24.80;99.90;;;;;;5114521;27;20389;-83
2021/09/08 11:11:57;;;;;;;11.15;8.70;;;24.90;99.90;;;;;;5133231;27;20416;-85
2021/09/08 11:14:46;;;;;;;10.52;9.40;;;25.00;99.90;;;;;;5114764;27;20381;-84
2021/09/08 11:17:23;;;;;;;10.77;9.43;;;25.00;99.90;;;;;;5111411;27;20374;-85
2021/09/08 11:19:56;;;;;;;11.40;9.30;;;25.00;99.90;;;;;;5111037;28;20402;-85
2021/09/08 11:22:22;;;;;;;16.75;9.45;;;24.90;99.90;;;;;;5092080;28;20399;-84
2021/09/08 11:25:09;;;;;;;10.07;8.95;;;25.00;99.90;;;;;;5113033;27;20380;-87
2021/09/08 11:27:39;;;;;;;11.77;9.77;;;24.90;99.90;;;;;;5113191;27;20463;-85
2021/09/08 11:30:07;;;;;;;11.25;9.35;;;24.70;99.90;;;;;;5114137;27;20385;-84
2021/09/08 11:32:51;;;;;;;11.57;9.43;;;24.60;99.90;;;;;;5132256;27;20369;-85
2021/09/08 11:35:37;;;;;;;11.18;8.80;;;24.40;99.90;;;;;;5123390;27;20374;-83
2021/09/08 11:38:04;;;;;;;12.88;9.35;;;24.60;99.90;;;;;;5112046;28;20363;-84
2021/09/08 11:40:30;;;;;;;10.43;8.65;;;24.60;99.90;;;;;;5111035;28;20895;-84
2021/09/08 11:42:56;;;;;;;12.10;9.63;;;24.50;99.90;;;;;;5110969;28;20395;-85
2021/09/08 11:45:29;;;;;;;12.10;9.33;;;24.50;99.90;;;;;;5110605;28;20394;-84
2021/09/08 11:47:55;;;;;;;22.50;9.38;;;24.50;99.90;;;;;;5091865;28;20548;-86
2021/09/08 11:50:21;;;;;;;39.58;11.35;;;24.60;99.90;;;;;;5110173;28;20386;-85
2021/09/08 11:52:54;;;;;;;14.20;9.32;;;24.60;99.90;;;;;;5092205;28;20435;-85
2021/09/08 11:55:38;;;;;;;11.88;9.35;;;24.50;99.90;;;;;;5110175;27;20423;-85
2021/09/08 11:58:20;;;;;;;10.97;9.87;;;24.40;99.90;;;;;;5094581;28;20420;-86
2021/09/08 12:01:04;;;;;;;10.93;9.52;;;24.40;99.90;;;;;;5094131;28;20370;-84
2021/09/08 12:03:31;;;;;;;12.33;9.50;;;24.40;99.90;;;;;;5092770;28;20413;-86
2021/09/08 12:06:18;;;;;;;11.03;9.73;;;24.40;99.90;;;;;;5110671;28;20383;-86
2021/09/08 12:09:11;;;;;;;12.00;9.33;;;24.40;99.90;;;;;;5110827;28;20375;-82
2021/09/08 12:11:37;;;;;;;33.55;11.38;;;24.50;99.90;;;;;;5110485;28;20393;-85
2021/09/08 12:14:15;;;;;;;18.88;9.75;;;24.50;99.90;;;;;;5115262;28;20454;-83
2021/09/08 12:16:41;;;;;;;11.05;8.75;;;24.40;99.90;;;;;;5096314;28;20413;-82
2021/09/08 12:19:11;;;;;;;11.73;8.67;;;24.50;99.90;;;;;;5096725;28;20806;-82
2021/09/08 12:21:37;;;;;;;42.85;12.07;;;24.50;99.90;;;;;;5115811;28;20442;-84
2021/09/08 12:24:26;;;;;;;14.23;8.98;;;24.40;99.90;;;;;;5114917;28;20502;-84
2021/09/08 12:26:52;;;;;;;10.80;8.27;;;24.50;99.90;;;;;;5114939;28;20419;-83
2021/09/08 12:29:18;;;;;;;9.15;7.88;;;24.40;99.90;;;;;;5097111;28;20978;-82
2021/09/08 12:31:55;;;;;;;11.05;8.18;;;24.30;99.90;;;;;;5097236;28;20465;-82